createdAt,value
2023-09-25T00:00:58.488Z,10.57
2023-09-25T00:03:42.564Z,9.90
2023-09-25T00:06:10.113Z,10.15
2023-09-25T00:08:39.028Z,9.50
2023-09-25T00:11:06.655Z,10.07
2023-09-25T00:13:33.806Z,10.13
2023-09-25T00:16:03.809Z,9.98
2023-09-25T00:18:31.106Z,10.13
2023-09-25T00:20:58.590Z,9.07
2023-09-25T00:23:25.655Z,9.70
2023-09-25T00:26:04.529Z,9.57
2023-09-25T00:28:31.918Z,9.73
2023-09-25T00:31:02.637Z,9.50
2023-09-25T00:33:32.344Z,9.23
2023-09-25T00:35:59.751Z,9.18
2023-09-25T00:38:33.290Z,8.55
2023-09-25T00:41:00.678Z,9.10
2023-09-25T00:43:30.228Z,7.65
2023-09-25T00:45:57.818Z,9.02
2023-09-25T00:48:31.038Z,8.02
2023-09-25T00:51:00.921Z,7.88
2023-09-25T00:53:30.105Z,7.38
2023-09-25T00:56:00.004Z,7.88
2023-09-25T00:58:29.585Z,8.57
2023-09-25T01:00:58.416Z,8.10
2023-09-25T01:03:25.707Z,7.90
2023-09-25T01:05:55.678Z,8.18
2023-09-25T01:08:22.847Z,8.50
2023-09-25T01:10:53.405Z,8.45
2023-09-25T01:13:20.476Z,9.35
2023-09-25T01:15:48.243Z,8.68
2023-09-25T01:18:15.493Z,7.97
2023-09-25T01:20:43.101Z,8.73
2023-09-25T01:23:12.479Z,7.72
2023-09-25T01:25:40.829Z,7.72
2023-09-25T01:28:08.138Z,7.85
2023-09-25T01:30:35.593Z,8.18
2023-09-25T01:33:05.311Z,7.90
2023-09-25T01:35:32.813Z,8.25
2023-09-25T01:38:01.662Z,7.70
2023-09-25T01:40:29.230Z,7.53
2023-09-25T01:42:56.633Z,7.35
2023-09-25T01:45:24.771Z,8.10
2023-09-25T01:47:55.025Z,7.95
2023-09-25T01:50:26.231Z,7.47
2023-09-25T01:53:02.373Z,7.75
2023-09-25T01:55:33.613Z,8.63
2023-09-25T01:58:00.738Z,7.47
2023-09-25T02:00:28.293Z,7.68
2023-09-25T02:02:55.660Z,7.47
2023-09-25T02:05:25.824Z,7.85
2023-09-25T02:07:53.641Z,7.05
2023-09-25T02:10:23.481Z,6.65
2023-09-25T02:12:53.490Z,7.53
2023-09-25T02:15:23.503Z,5.57
2023-09-25T02:17:51.108Z,6.28
2023-09-25T02:20:22.076Z,7.28
2023-09-25T02:22:52.857Z,6.40
2023-09-25T02:25:20.472Z,6.80
2023-09-25T02:27:47.996Z,6.97
2023-09-25T02:30:18.517Z,6.55
2023-09-25T02:32:48.876Z,6.55
2023-09-25T02:35:16.408Z,6.20
2023-09-25T02:37:43.722Z,6.32
2023-09-25T02:40:13.789Z,5.68
2023-09-25T02:42:41.779Z,7.15
2023-09-25T02:45:09.984Z,6.88
2023-09-25T02:47:37.111Z,6.05
2023-09-25T02:50:09.330Z,6.25
2023-09-25T02:52:36.476Z,5.65
2023-09-25T02:55:09.853Z,6.10
2023-09-25T02:57:39.322Z,6.57
2023-09-25T03:00:07.486Z,6.10
2023-09-25T03:02:34.834Z,6.30
2023-09-25T03:05:02.240Z,6.57
2023-09-25T03:07:30.533Z,5.75
2023-09-25T03:09:57.974Z,5.90
2023-09-25T03:12:27.588Z,5.60
2023-09-25T03:14:55.068Z,6.28
2023-09-25T03:17:22.218Z,6.32
2023-09-25T03:19:53.131Z,6.60
2023-09-25T03:22:22.452Z,6.72
2023-09-25T03:24:50.099Z,6.45
2023-09-25T03:27:17.722Z,6.10
2023-09-25T03:29:46.123Z,7.03
2023-09-25T03:32:13.258Z,6.65
2023-09-25T03:34:43.145Z,5.90
2023-09-25T03:37:10.217Z,6.80
2023-09-25T03:39:39.848Z,6.80
2023-09-25T03:42:07.120Z,7.40
2023-09-25T03:44:37.063Z,6.55
2023-09-25T03:47:04.372Z,6.18
2023-09-25T03:49:31.856Z,6.45
2023-09-25T03:51:59.135Z,6.60
2023-09-25T03:54:28.931Z,6.53
2023-09-25T03:56:56.208Z,7.05
2023-09-25T03:59:26.104Z,6.63
2023-09-25T04:01:53.261Z,6.43
2023-09-25T04:04:23.273Z,7.00
2023-09-25T04:06:58.002Z,6.78
2023-09-25T04:09:27.971Z,7.05
2023-09-25T04:11:55.134Z,6.53
2023-09-25T04:14:22.580Z,7.25
2023-09-25T04:16:50.016Z,14.25
2023-09-25T04:19:17.684Z,10.15
2023-09-25T04:21:47.475Z,8.15
2023-09-25T04:24:15.015Z,7.55
2023-09-25T04:26:42.113Z,8.02
2023-09-25T04:29:12.385Z,7.55
2023-09-25T04:31:39.599Z,7.28
2023-09-25T04:34:07.282Z,8.25
2023-09-25T04:36:38.652Z,8.23
2023-09-25T04:39:06.464Z,8.38
2023-09-25T04:41:33.627Z,8.15
2023-09-25T04:44:01.104Z,11.57
2023-09-25T04:46:30.833Z,11.98
2023-09-25T04:48:58.431Z,7.68
2023-09-25T04:51:25.635Z,9.25
2023-09-25T04:53:53.116Z,8.40
2023-09-25T04:56:21.228Z,8.30
2023-09-25T04:58:51.390Z,7.53
2023-09-25T05:01:18.703Z,8.07
2023-09-25T05:03:46.470Z,8.52
2023-09-25T05:06:13.850Z,8.80
2023-09-25T05:08:41.338Z,9.07
2023-09-25T05:11:08.558Z,9.02
2023-09-25T05:13:38.506Z,8.40
2023-09-25T05:16:08.394Z,8.43
2023-09-25T05:18:49.403Z,8.68
2023-09-25T05:21:16.757Z,8.48
2023-09-25T05:23:46.004Z,8.20
2023-09-25T05:26:13.158Z,8.85
2023-09-25T05:28:43.217Z,9.30
2023-09-25T05:31:10.552Z,9.25
2023-09-25T05:33:38.121Z,8.10
2023-09-25T05:36:05.444Z,8.82
2023-09-25T05:38:32.891Z,9.15
2023-09-25T05:41:00.016Z,8.80
2023-09-25T05:43:27.432Z,12.85
2023-09-25T05:45:57.129Z,10.95
2023-09-25T05:48:24.775Z,9.57
2023-09-25T05:50:52.032Z,8.98
2023-09-25T05:53:24.825Z,7.97
2023-09-25T05:55:51.946Z,7.95
2023-09-25T05:58:20.609Z,7.03
2023-09-25T06:00:50.228Z,6.57
2023-09-25T06:03:17.870Z,7.00
2023-09-25T06:05:45.055Z,7.20
2023-09-25T06:08:17.867Z,14.52
2023-09-25T06:10:45.006Z,13.23
2023-09-25T06:13:12.546Z,6.80
2023-09-25T06:15:43.698Z,7.88
2023-09-25T06:18:11.199Z,8.00
2023-09-25T06:20:38.356Z,7.72
2023-09-25T06:23:06.081Z,8.55
2023-09-25T06:25:35.372Z,6.47
2023-09-25T06:28:05.507Z,6.72
2023-09-25T06:30:34.999Z,6.65
2023-09-25T06:33:05.055Z,6.38
2023-09-25T06:35:34.545Z,5.38
2023-09-25T06:38:04.251Z,5.25
2023-09-25T06:40:31.331Z,5.40
2023-09-25T06:43:01.054Z,5.18
2023-09-25T06:45:28.345Z,5.68
2023-09-25T06:47:55.976Z,9.15
2023-09-25T06:50:23.255Z,8.27
2023-09-25T06:52:53.220Z,10.98
2023-09-25T06:55:22.812Z,8.50
2023-09-25T06:57:52.797Z,5.55
2023-09-25T07:00:20.142Z,5.60
2023-09-25T07:02:50.718Z,5.13
2023-09-25T07:05:18.289Z,6.53
2023-09-25T07:07:45.890Z,7.63
2023-09-25T07:10:13.047Z,8.57
2023-09-25T07:12:40.625Z,8.38
2023-09-25T07:15:08.392Z,8.10
2023-09-25T07:17:38.507Z,8.25
2023-09-25T07:20:06.496Z,8.35
2023-09-25T07:22:33.992Z,8.90
2023-09-25T07:25:01.133Z,7.70
2023-09-25T07:27:28.643Z,8.88
2023-09-25T07:29:58.785Z,8.13
2023-09-25T07:32:26.331Z,9.20
2023-09-25T07:34:55.961Z,11.30
2023-09-25T07:37:23.358Z,8.50
2023-09-25T07:39:52.843Z,9.00
2023-09-25T07:42:22.100Z,10.60
2023-09-25T07:44:49.510Z,8.68
2023-09-25T07:47:16.956Z,8.43
2023-09-25T07:49:46.606Z,8.48
2023-09-25T07:52:16.572Z,8.95
2023-09-25T07:54:45.422Z,8.27
2023-09-25T07:57:19.258Z,11.80
2023-09-25T07:59:46.616Z,8.90
2023-09-25T08:02:14.938Z,8.48
2023-09-25T08:04:45.123Z,8.73
2023-09-25T08:07:15.112Z,8.95
2023-09-25T08:09:45.221Z,7.00
2023-09-25T08:12:19.957Z,6.78
2023-09-25T08:17:14.629Z,8.27
2023-09-25T08:19:43.992Z,7.10
2023-09-25T08:22:11.580Z,6.88
2023-09-25T08:24:38.859Z,8.73
2023-09-25T08:27:08.796Z,7.00
2023-09-25T08:29:38.967Z,7.53
2023-09-25T08:32:08.999Z,7.82
2023-09-25T08:34:36.576Z,7.85
2023-09-25T08:37:06.471Z,7.50
2023-09-25T08:39:35.360Z,9.60
2023-09-25T08:42:05.058Z,5.88
2023-09-25T08:44:32.355Z,5.40
2023-09-25T08:47:00.047Z,6.38
2023-09-25T08:49:27.574Z,5.25
2023-09-25T08:51:57.891Z,6.03
2023-09-25T08:54:27.808Z,5.65
2023-09-25T08:56:55.881Z,4.78
2023-09-25T08:59:26.677Z,4.35
2023-09-25T09:01:57.042Z,5.60
2023-09-25T09:04:28.681Z,6.15
2023-09-25T09:09:30.480Z,4.13
2023-09-25T09:12:19.746Z,4.20
2023-09-25T09:16:32.298Z,3.95
2023-09-25T09:19:08.537Z,3.78
2023-09-25T09:21:38.239Z,4.03
2023-09-25T09:24:18.633Z,4.43
2023-09-25T09:26:45.821Z,5.10
2023-09-25T09:29:16.017Z,5.00
2023-09-25T09:31:43.187Z,5.43
2023-09-25T09:34:10.818Z,6.03
2023-09-25T09:36:38.611Z,6.45
2023-09-25T09:39:09.315Z,5.82
2023-09-25T09:41:41.854Z,5.80
2023-09-25T09:46:44.249Z,5.47
2023-09-25T09:49:16.801Z,6.45
2023-09-25T09:51:45.172Z,5.20
2023-09-25T09:54:13.760Z,4.93
2023-09-25T09:56:43.856Z,5.40
2023-09-25T09:59:14.293Z,6.15
2023-09-25T10:01:47.770Z,5.40
2023-09-25T10:04:25.068Z,4.90
2023-09-25T10:06:54.184Z,4.35
2023-09-25T10:09:23.944Z,3.90
2023-09-25T10:11:53.127Z,4.43
2023-09-25T10:14:24.605Z,3.97
2023-09-25T10:17:03.421Z,3.83
2023-09-25T10:19:37.172Z,3.97
2023-09-25T10:22:29.212Z,4.90
2023-09-25T10:25:11.648Z,5.18
2023-09-25T10:27:41.269Z,4.57
2023-09-25T10:30:12.143Z,4.90
2023-09-25T10:32:42.737Z,5.03
2023-09-25T10:35:39.290Z,5.10
2023-09-25T10:38:31.147Z,4.50
2023-09-25T10:41:05.324Z,4.32
2023-09-25T10:43:34.553Z,4.60
2023-09-25T10:46:05.663Z,3.30
2023-09-25T10:48:37.768Z,4.15
2023-09-25T10:51:07.650Z,5.03
2023-09-25T10:53:35.007Z,3.78
2023-09-25T10:56:02.724Z,3.20
2023-09-25T10:58:30.216Z,3.75
2023-09-25T11:00:57.856Z,4.15
2023-09-25T11:03:25.947Z,3.75
2023-09-25T11:05:57.068Z,3.55
2023-09-25T11:08:28.774Z,4.28
2023-09-25T11:11:00.327Z,3.90
2023-09-25T11:13:29.922Z,3.20
2023-09-25T11:15:59.975Z,3.10
2023-09-25T11:18:27.295Z,3.45
2023-09-25T11:21:00.560Z,3.67
2023-09-25T11:23:27.797Z,3.28
2023-09-25T11:25:57.531Z,3.65
2023-09-25T11:28:26.238Z,3.28
2023-09-25T11:30:55.174Z,4.10
2023-09-25T11:33:25.355Z,4.63
2023-09-25T11:35:56.988Z,4.70
2023-09-25T11:38:25.672Z,4.88
2023-09-25T11:40:53.543Z,5.18
2023-09-25T11:43:23.389Z,6.15
2023-09-25T11:45:51.002Z,6.10
2023-09-25T11:48:18.253Z,5.65
2023-09-25T11:50:48.318Z,5.63
2023-09-25T11:53:18.003Z,6.38
2023-09-25T11:55:45.557Z,5.68
2023-09-25T11:58:13.690Z,6.22
2023-09-25T12:00:42.508Z,6.18
2023-09-25T12:03:12.070Z,6.35
2023-09-25T12:05:39.843Z,8.02
2023-09-25T12:08:07.041Z,7.05
2023-09-25T12:10:35.081Z,6.30
2023-09-25T12:13:04.816Z,5.75
2023-09-25T12:15:32.403Z,6.28
2023-09-25T12:18:02.281Z,7.15
2023-09-25T12:23:01.447Z,6.85
2023-09-25T12:25:31.734Z,8.02
2023-09-25T12:27:59.256Z,8.15
2023-09-25T12:30:29.739Z,8.02
2023-09-25T12:33:01.102Z,8.73
2023-09-25T12:35:30.891Z,9.18
2023-09-25T12:38:00.269Z,9.18
2023-09-25T12:40:31.605Z,8.70
2023-09-25T12:42:59.050Z,8.88
2023-09-25T12:45:27.898Z,8.38
2023-09-25T12:47:55.350Z,8.55
2023-09-25T12:50:23.056Z,9.23
2023-09-25T12:52:50.214Z,7.50
2023-09-25T12:55:19.093Z,8.82
2023-09-25T12:57:46.269Z,8.95
2023-09-25T13:00:17.124Z,8.93
2023-09-25T13:02:50.164Z,8.93
2023-09-25T13:05:19.572Z,8.60
2023-09-25T13:07:49.648Z,8.73
2023-09-25T13:10:17.349Z,9.02
2023-09-25T13:12:48.363Z,8.80
2023-09-25T13:15:23.161Z,9.05
2023-09-25T13:17:52.839Z,8.90
2023-09-25T13:20:27.483Z,8.95
2023-09-25T13:22:54.600Z,8.85
2023-09-25T13:25:22.108Z,9.30
2023-09-25T13:27:49.308Z,8.23
2023-09-25T13:30:17.240Z,9.50
2023-09-25T13:32:47.186Z,10.60
2023-09-25T13:35:15.094Z,10.10
2023-09-25T13:37:42.265Z,9.52
2023-09-25T13:40:12.966Z,10.10
2023-09-25T13:42:40.221Z,10.07
2023-09-25T13:45:09.041Z,10.57
2023-09-25T13:47:36.139Z,10.52
2023-09-25T13:50:04.873Z,10.90
2023-09-25T13:52:32.014Z,10.15
2023-09-25T13:54:59.858Z,11.15
2023-09-25T13:57:27.426Z,10.02
2023-09-25T14:00:00.597Z,10.55
2023-09-25T14:02:28.166Z,10.43
2023-09-25T14:04:58.658Z,10.70
2023-09-25T14:07:25.815Z,10.75
2023-09-25T14:09:53.378Z,10.98
2023-09-25T14:12:23.154Z,11.35
2023-09-25T14:14:53.313Z,10.63
2023-09-25T14:17:20.969Z,10.70
2023-09-25T14:19:49.321Z,10.98
2023-09-25T14:22:16.934Z,9.95
2023-09-25T14:24:44.881Z,10.40
2023-09-25T14:27:14.581Z,10.77
2023-09-25T14:29:42.191Z,11.05
2023-09-25T14:32:09.674Z,10.57
2023-09-25T14:34:37.389Z,10.52
2023-09-25T14:37:05.218Z,11.50
2023-09-25T14:39:35.158Z,10.75
2023-09-25T14:42:02.359Z,10.88
2023-09-25T14:44:32.559Z,10.93
2023-09-25T14:46:59.731Z,10.55
2023-09-25T14:49:29.456Z,9.95
2023-09-25T14:52:01.220Z,11.60
2023-09-25T14:54:28.800Z,10.13
2023-09-25T14:56:55.962Z,11.65
2023-09-25T14:59:25.886Z,12.00
2023-09-25T15:01:53.070Z,11.20
2023-09-25T15:04:26.074Z,12.15
2023-09-25T15:06:53.379Z,12.57
2023-09-25T15:09:20.978Z,13.52
2023-09-25T15:11:48.098Z,12.50
2023-09-25T15:14:15.643Z,13.50
2023-09-25T15:16:47.281Z,13.07
2023-09-25T15:19:17.214Z,12.93
2023-09-25T15:21:49.111Z,12.23
2023-09-25T15:24:19.701Z,12.88
2023-09-25T15:26:46.889Z,12.95
2023-09-25T15:29:14.388Z,13.15
2023-09-25T15:31:43.726Z,14.05
2023-09-25T15:34:11.308Z,13.57
2023-09-25T15:36:40.700Z,13.18
2023-09-25T15:39:08.235Z,13.98
2023-09-25T15:41:37.609Z,15.15
2023-09-25T15:44:05.210Z,14.23
2023-09-25T15:46:34.945Z,15.48
2023-09-25T15:49:02.488Z,14.20
2023-09-25T15:51:29.634Z,14.27
2023-09-25T15:54:00.879Z,14.35
2023-09-25T15:56:30.620Z,15.57
2023-09-25T15:58:58.126Z,15.32
2023-09-25T16:01:25.434Z,14.88
2023-09-25T16:03:55.853Z,14.10
2023-09-25T16:06:25.625Z,14.50
2023-09-25T16:08:55.410Z,15.48
2023-09-25T16:11:22.580Z,16.33
2023-09-25T16:13:50.149Z,15.40
2023-09-25T16:16:17.571Z,15.88
2023-09-25T16:18:45.410Z,17.13
2023-09-25T16:21:12.601Z,16.55
2023-09-25T16:23:42.366Z,17.40
2023-09-25T16:26:09.481Z,16.10
2023-09-25T16:28:36.901Z,16.90
2023-09-25T16:31:08.760Z,15.95
2023-09-25T16:33:36.397Z,17.25
2023-09-25T16:36:06.293Z,16.88
2023-09-25T16:38:34.500Z,18.85
2023-09-25T16:41:05.699Z,17.17
2023-09-25T16:43:38.700Z,16.83
2023-09-25T16:46:07.053Z,16.42
2023-09-25T16:48:37.967Z,17.65
2023-09-25T16:51:07.728Z,17.92
2023-09-25T16:53:35.492Z,17.80
2023-09-25T16:56:02.708Z,18.77
2023-09-25T16:58:30.224Z,18.92
2023-09-25T17:00:57.480Z,18.27
2023-09-25T17:03:25.427Z,19.85
2023-09-25T17:05:52.755Z,19.58
2023-09-25T17:08:22.533Z,19.80
2023-09-25T17:10:49.657Z,19.08
2023-09-25T17:13:17.190Z,19.88
2023-09-25T17:15:46.909Z,20.95
2023-09-25T17:18:14.809Z,19.20
2023-09-25T17:20:43.110Z,20.55
2023-09-25T17:23:10.717Z,21.10
2023-09-25T17:25:37.822Z,20.55
2023-09-25T17:28:05.918Z,22.65
2023-09-25T17:30:36.236Z,25.13
2023-09-25T17:33:04.176Z,23.25
2023-09-25T17:35:32.448Z,24.50
2023-09-25T17:38:01.701Z,27.08
2023-09-25T17:40:29.377Z,25.55
2023-09-25T17:42:57.408Z,36.42
2023-09-25T17:45:27.226Z,25.38
2023-09-25T17:48:14.773Z,25.08
2023-09-25T17:51:02.386Z,23.98
2023-09-25T17:53:33.999Z,23.40
2023-09-25T17:56:03.586Z,24.63
2023-09-25T17:58:33.293Z,24.63
2023-09-25T18:01:01.148Z,22.13
2023-09-25T18:03:29.387Z,24.50
2023-09-25T18:06:01.197Z,23.88
2023-09-25T18:08:29.017Z,25.10
2023-09-25T18:10:59.177Z,23.73
2023-09-25T18:13:26.677Z,23.55
2023-09-25T18:15:54.361Z,25.25
2023-09-25T18:18:23.152Z,25.20
2023-09-25T18:20:50.692Z,27.58
2023-09-25T18:23:20.316Z,30.60
2023-09-25T18:25:48.358Z,31.75
2023-09-25T18:28:15.560Z,30.27
2023-09-25T18:30:43.217Z,30.75
2023-09-25T18:33:12.250Z,32.92
2023-09-25T18:35:40.028Z,31.15
2023-09-25T18:38:07.451Z,28.98
2023-09-25T18:40:36.673Z,29.90
2023-09-25T18:43:06.743Z,33.58
2023-09-25T18:45:36.823Z,32.17
2023-09-25T18:48:04.502Z,29.63
2023-09-25T18:50:32.076Z,31.80
2023-09-25T18:52:59.226Z,34.70
2023-09-25T18:55:26.852Z,31.08
2023-09-25T18:57:54.165Z,31.45
2023-09-25T19:00:22.199Z,28.00
2023-09-25T19:02:49.437Z,28.38
2023-09-25T19:05:20.158Z,31.73
2023-09-25T19:07:47.331Z,29.48
2023-09-25T19:10:15.043Z,26.85
2023-09-25T19:12:46.679Z,29.75
2023-09-25T19:15:14.184Z,31.45
2023-09-25T19:17:41.333Z,31.83
2023-09-25T19:20:09.062Z,33.53
2023-09-25T19:22:36.158Z,33.53
2023-09-25T19:25:03.895Z,31.63
2023-09-25T19:27:31.025Z,34.88
2023-09-25T19:30:03.009Z,33.75
2023-09-25T19:32:30.316Z,32.85
2023-09-25T19:34:57.986Z,33.25
2023-09-25T19:37:25.212Z,32.55
2023-09-25T19:39:52.605Z,32.17
2023-09-25T19:42:24.333Z,28.20
2023-09-25T19:44:53.203Z,29.15
2023-09-25T19:47:20.515Z,27.60
2023-09-25T19:49:50.353Z,28.73
2023-09-25T19:52:17.509Z,29.55
2023-09-25T19:54:44.960Z,28.90
2023-09-25T19:57:17.453Z,28.88
2023-09-25T19:59:45.054Z,29.73
2023-09-25T20:02:13.414Z,30.75
2023-09-25T20:04:40.899Z,29.25
2023-09-25T20:07:08.145Z,29.83
2023-09-25T20:09:38.302Z,26.65
2023-09-25T20:12:06.099Z,27.83
2023-09-25T20:14:34.468Z,25.95
2023-09-25T20:17:01.577Z,28.25
2023-09-25T20:19:33.111Z,26.33
2023-09-25T20:22:00.244Z,28.48
2023-09-25T20:24:28.824Z,27.38
2023-09-25T20:26:58.410Z,30.05
2023-09-25T20:29:25.852Z,27.50
2023-09-25T20:31:53.091Z,28.38
2023-09-25T20:34:22.867Z,27.25
2023-09-25T20:36:50.122Z,27.75
2023-09-25T20:39:18.030Z,30.33
2023-09-25T20:41:45.136Z,30.38
2023-09-25T20:44:14.847Z,30.50
2023-09-25T20:46:43.554Z,29.48
2023-09-25T20:49:11.075Z,29.17
2023-09-25T20:51:40.658Z,26.77
2023-09-25T20:54:10.616Z,27.67
2023-09-25T20:56:38.226Z,25.95
2023-09-25T20:59:05.664Z,28.85
2023-09-25T21:01:32.818Z,28.48
2023-09-25T21:04:00.799Z,31.92
2023-09-25T21:06:31.030Z,26.92
2023-09-25T21:08:58.428Z,25.15
2023-09-25T21:11:25.562Z,27.38
2023-09-25T21:13:55.416Z,27.92
2023-09-25T21:16:24.925Z,28.83
2023-09-25T21:18:52.421Z,28.92
2023-09-25T21:21:19.770Z,29.10
2023-09-25T21:23:47.167Z,30.88
2023-09-25T21:26:14.219Z,29.85
2023-09-25T21:28:41.673Z,28.83
2023-09-25T21:31:08.861Z,27.85
2023-09-25T21:33:36.495Z,30.13
2023-09-25T21:36:03.663Z,28.75
2023-09-25T21:38:31.266Z,29.73
2023-09-25T21:40:58.368Z,28.00
2023-09-25T21:43:25.813Z,33.22
2023-09-25T21:45:53.060Z,29.52
2023-09-25T21:48:20.594Z,38.90
2023-09-25T21:51:02.246Z,37.78
2023-09-25T21:53:30.064Z,29.67
2023-09-25T21:55:57.317Z,28.20
2023-09-25T21:58:24.775Z,27.08
2023-09-25T22:00:52.202Z,24.98
2023-09-25T22:03:19.996Z,25.80
2023-09-25T22:05:50.816Z,26.27
2023-09-25T22:08:21.262Z,26.67
2023-09-25T22:10:50.668Z,27.67
2023-09-25T22:13:18.076Z,25.52
2023-09-25T22:15:45.237Z,26.85
2023-09-25T22:18:12.803Z,25.52
2023-09-25T22:20:39.881Z,26.98
2023-09-25T22:23:07.451Z,27.50
2023-09-25T22:25:34.614Z,29.10
2023-09-25T22:28:02.014Z,29.52
2023-09-25T22:30:29.392Z,29.25
2023-09-25T22:32:59.498Z,26.85
2023-09-25T22:35:26.625Z,28.65
2023-09-25T22:38:10.476Z,26.30
2023-09-25T22:40:39.932Z,27.50
2023-09-25T22:43:15.061Z,28.13
2023-09-25T22:45:42.328Z,29.15
2023-09-25T22:48:09.822Z,26.95
2023-09-25T22:50:39.190Z,26.40
2023-09-25T22:53:06.933Z,26.60
2023-09-25T22:55:34.204Z,24.77
2023-09-25T22:58:02.837Z,25.05
2023-09-25T23:00:30.155Z,26.52
2023-09-25T23:02:57.888Z,24.83
2023-09-25T23:05:27.557Z,25.13
2023-09-25T23:07:55.674Z,24.58
2023-09-25T23:10:23.070Z,25.10
2023-09-25T23:12:53.025Z,22.95
2023-09-25T23:15:22.764Z,24.23
2023-09-25T23:17:50.390Z,24.40
2023-09-25T23:20:19.791Z,26.55
2023-09-25T23:22:55.024Z,25.92
2023-09-25T23:25:26.935Z,24.30
2023-09-25T23:28:01.122Z,24.48
2023-09-25T23:30:28.397Z,24.85
2023-09-25T23:32:55.876Z,29.80
2023-09-25T23:35:23.092Z,27.85
2023-09-25T23:37:50.571Z,27.50
2023-09-25T23:40:18.037Z,27.77
2023-09-25T23:42:51.525Z,28.40
2023-09-25T23:45:19.344Z,30.02
2023-09-25T23:47:49.265Z,31.02
2023-09-25T23:50:17.112Z,29.83
2023-09-25T23:52:47.110Z,29.05
2023-09-25T23:55:14.443Z,28.58
2023-09-25T23:57:45.008Z,32.03
